createdAt,value
2022-09-15T00:01:49.001Z,100719.25
2022-09-15T00:04:15.430Z,100730.53
2022-09-15T00:06:41.969Z,100734.97
2022-09-15T00:09:08.371Z,100721.50
2022-09-15T00:11:36.881Z,100727.94
2022-09-15T00:14:06.325Z,100718.66
2022-09-15T00:16:33.009Z,100730.50
2022-09-15T00:19:00.405Z,100735.72
2022-09-15T00:21:32.460Z,100734.69
2022-09-15T00:23:59.804Z,100729.91
2022-09-15T00:26:27.878Z,100736.13
2022-09-15T00:28:54.751Z,100727.28
2022-09-15T00:31:22.999Z,100739.19
2022-09-15T00:33:50.812Z,100735.16
2022-09-15T00:36:17.968Z,100733.16
2022-09-15T00:38:44.641Z,100737.56
2022-09-15T00:41:13.460Z,100738.78
2022-09-15T00:43:58.133Z,100735.16
2022-09-15T00:46:28.967Z,100734.97
2022-09-15T00:49:23.324Z,100739.59
2022-09-15T00:51:49.510Z,100733.31
2022-09-15T00:54:29.375Z,100714.34
2022-09-15T00:56:58.480Z,100734.34
2022-09-15T00:59:27.204Z,100735.09
2022-09-15T01:02:06.073Z,100739.69
2022-09-15T01:04:32.487Z,100742.50
2022-09-15T01:07:02.350Z,100754.75
2022-09-15T01:09:34.750Z,100749.16
2022-09-15T01:12:01.876Z,100740.91
2022-09-15T01:14:28.245Z,100738.34
2022-09-15T01:17:06.893Z,100737.28
2022-09-15T01:19:59.954Z,100743.59
2022-09-15T01:23:03.221Z,100740.19
2022-09-15T01:25:54.360Z,100748.38
2022-09-15T01:28:38.660Z,100737.91
2022-09-15T01:31:25.240Z,100717.19
2022-09-15T01:33:58.900Z,100725.44
2022-09-15T01:36:31.011Z,100741.19
2022-09-15T01:39:06.153Z,100750.84
2022-09-15T01:41:44.637Z,100749.25
2022-09-15T01:44:24.986Z,100750.44
2022-09-15T01:47:03.382Z,100752.03
2022-09-15T01:49:53.840Z,100750.03
2022-09-15T01:52:22.654Z,100749.00
2022-09-15T01:54:53.867Z,100734.75
2022-09-15T01:57:21.391Z,100743.00
2022-09-15T01:59:51.932Z,100736.53
2022-09-15T02:02:22.986Z,100747.69
2022-09-15T02:04:55.320Z,100748.94
2022-09-15T02:07:39.100Z,100754.97
2022-09-15T02:10:12.906Z,100738.06
2022-09-15T02:12:44.793Z,100742.72
2022-09-15T02:15:14.879Z,100746.59
2022-09-15T02:17:43.541Z,100754.19
2022-09-15T02:20:20.129Z,100749.00
2022-09-15T02:22:50.318Z,100759.09
2022-09-15T02:25:19.526Z,100754.47
2022-09-15T02:27:50.124Z,100737.97
2022-09-15T02:30:17.973Z,100754.88
2022-09-15T02:32:49.000Z,100746.25
2022-09-15T02:35:17.047Z,100740.59
2022-09-15T02:37:43.611Z,100747.44
2022-09-15T02:40:10.678Z,100742.41
2022-09-15T02:42:37.160Z,100745.63
2022-09-15T02:45:04.045Z,100726.72
2022-09-15T02:47:30.405Z,100758.91
2022-09-15T02:49:57.060Z,100747.03
2022-09-15T02:52:23.481Z,100743.41
2022-09-15T02:54:50.408Z,100757.13
2022-09-15T02:57:16.805Z,100753.06
2022-09-15T03:00:01.728Z,100742.81
2022-09-15T03:02:28.159Z,100755.69
2022-09-15T03:04:54.563Z,100754.28
2022-09-15T03:07:21.575Z,100750.88
2022-09-15T03:09:47.928Z,100751.09
2022-09-15T03:12:14.551Z,100744.63
2022-09-15T03:14:40.914Z,100756.72
2022-09-15T03:17:07.249Z,100732.13
2022-09-15T03:19:33.596Z,100758.13
2022-09-15T03:21:59.957Z,100739.81
2022-09-15T03:24:26.350Z,100762.53
2022-09-15T03:26:53.214Z,100745.22
2022-09-15T03:29:19.565Z,100729.09
2022-09-15T03:31:45.964Z,100731.16
2022-09-15T03:34:12.343Z,100738.00
2022-09-15T03:36:38.688Z,100761.75
2022-09-15T03:39:05.051Z,100749.47
2022-09-15T03:41:31.405Z,100753.88
2022-09-15T03:43:57.811Z,100748.47
2022-09-15T03:46:24.165Z,100772.22
2022-09-15T03:48:50.515Z,100740.81
2022-09-15T03:51:16.917Z,100771.22
2022-09-15T03:53:43.287Z,100773.22
2022-09-15T03:56:22.846Z,100772.03
2022-09-15T03:58:49.575Z,100748.47
2022-09-15T04:01:16.116Z,100757.13
2022-09-15T04:03:47.597Z,100738.00
2022-09-15T04:06:17.298Z,100740.81
2022-09-15T04:08:43.827Z,100772.22
2022-09-15T04:11:11.923Z,100768.59
2022-09-15T04:13:39.366Z,100750.06
2022-09-15T04:16:08.076Z,100747.06
2022-09-15T04:18:35.350Z,100776.44
2022-09-15T04:21:04.070Z,100773.03
2022-09-15T04:23:30.426Z,100775.44
2022-09-15T04:26:01.700Z,100757.13
2022-09-15T04:28:29.757Z,100777.66
2022-09-15T04:31:09.711Z,100766.38
2022-09-15T04:33:36.770Z,100784.88
2022-09-15T04:36:06.077Z,100766.34
2022-09-15T04:38:32.685Z,100765.78
2022-09-15T04:40:59.285Z,100737.41
2022-09-15T04:43:27.022Z,100769.19
2022-09-15T04:45:54.224Z,100766.97
2022-09-15T04:48:21.958Z,100755.69
2022-09-15T04:50:48.316Z,100769.38
2022-09-15T04:53:15.026Z,100772.63
2022-09-15T04:55:41.397Z,100751.09
2022-09-15T04:58:08.965Z,100763.13
2022-09-15T05:00:42.381Z,100772.41
2022-09-15T05:03:13.327Z,100759.53
2022-09-15T05:05:40.536Z,100777.25
2022-09-15T05:08:08.043Z,100759.94
2022-09-15T05:10:34.436Z,100764.38
2022-09-15T05:13:00.800Z,100774.81
2022-09-15T05:15:27.191Z,100744.63
2022-09-15T05:17:53.661Z,100774.22
2022-09-15T05:20:20.026Z,100778.81
2022-09-15T05:22:46.384Z,100735.16
2022-09-15T05:25:13.036Z,100780.22
2022-09-15T05:27:39.514Z,100780.84
2022-09-15T05:30:35.183Z,100762.91
2022-09-15T05:32:53.997Z,100760.88
2022-09-15T05:35:20.403Z,100774.00
2022-09-15T05:37:46.911Z,100775.81
2022-09-15T05:40:13.341Z,100758.50
2022-09-15T05:42:40.335Z,100773.81
2022-09-15T05:45:07.485Z,100777.66
2022-09-15T05:47:33.848Z,100760.34
2022-09-15T05:50:00.233Z,100783.09
2022-09-15T05:52:26.604Z,100781.66
2022-09-15T05:54:56.940Z,100773.81
2022-09-15T05:57:25.286Z,100767.16
2022-09-15T05:59:51.646Z,100761.34
2022-09-15T06:02:18.092Z,100786.53
2022-09-15T06:04:44.526Z,100765.16
2022-09-15T06:07:10.915Z,100763.75
2022-09-15T06:09:37.757Z,100793.13
2022-09-15T06:12:04.189Z,100792.13
2022-09-15T06:14:30.533Z,100776.63
2022-09-15T06:16:57.200Z,100760.75
2022-09-15T06:19:23.565Z,100789.13
2022-09-15T06:21:49.937Z,100774.41
2022-09-15T06:24:16.351Z,100800.81
2022-09-15T06:26:42.744Z,100773.19
2022-09-15T06:29:11.614Z,100806.41
2022-09-15T06:31:38.484Z,100803.81
2022-09-15T06:34:05.325Z,100808.44
2022-09-15T06:36:32.214Z,100811.06
2022-09-15T06:38:58.805Z,100816.69
2022-09-15T06:41:25.653Z,100825.38
2022-09-15T06:43:52.966Z,100814.91
2022-09-15T06:46:21.925Z,100835.63
2022-09-15T06:48:48.909Z,100821.94
2022-09-15T06:51:17.022Z,100800.00
2022-09-15T06:53:44.020Z,100819.31
2022-09-15T06:56:13.410Z,100826.56
2022-09-15T06:58:41.122Z,100845.31
2022-09-15T07:01:13.009Z,100847.69
2022-09-15T07:03:41.142Z,100856.38
2022-09-15T07:06:08.121Z,100806.63
2022-09-15T07:08:34.702Z,100841.06
2022-09-15T07:11:01.227Z,100820.13
2022-09-15T07:13:31.676Z,100856.38
2022-09-15T07:16:00.043Z,100860.59
2022-09-15T07:18:26.728Z,100872.09
2022-09-15T07:21:01.710Z,100876.91
2022-09-15T07:23:28.358Z,100877.13
2022-09-15T07:26:14.318Z,100876.50
2022-09-15T07:28:42.768Z,100875.91
2022-09-15T07:31:10.741Z,100875.13
2022-09-15T07:33:37.389Z,100861.84
2022-09-15T07:36:07.853Z,100876.50
2022-09-15T07:38:35.151Z,100860.22
2022-09-15T07:41:05.989Z,100867.47
2022-09-15T07:43:32.764Z,100870.06
2022-09-15T07:45:59.833Z,100885.41
2022-09-15T07:48:26.731Z,100881.16
2022-09-15T07:50:53.335Z,100882.16
2022-09-15T07:53:20.625Z,100839.22
2022-09-15T07:55:52.466Z,100871.47
2022-09-15T07:58:19.157Z,100848.88
2022-09-15T08:00:47.356Z,100886.56
2022-09-15T08:03:14.756Z,100885.34
2022-09-15T08:05:45.245Z,100875.41
2022-09-15T08:08:12.040Z,100861.56
2022-09-15T08:10:40.000Z,100872.66
2022-09-15T08:13:06.435Z,100897.81
2022-09-15T08:15:38.651Z,100906.63
2022-09-15T08:18:05.734Z,100891.34
2022-09-15T08:20:32.484Z,100896.78
2022-09-15T08:22:58.996Z,100920.13
2022-09-15T08:25:25.446Z,100902.22
2022-09-15T08:27:53.985Z,100900.34
2022-09-15T08:30:21.210Z,100892.16
2022-09-15T08:32:47.769Z,100924.13
2022-09-15T08:35:14.786Z,100924.53
2022-09-15T08:37:41.319Z,100934.22
2022-09-15T08:40:14.463Z,100905.44
2022-09-15T08:42:44.820Z,100929.56
2022-09-15T08:45:22.463Z,100920.53
2022-09-15T08:47:55.853Z,100924.94
2022-09-15T08:50:40.077Z,100908.22
2022-09-15T08:53:11.813Z,100937.44
2022-09-15T08:55:51.049Z,100943.94
2022-09-15T08:58:19.323Z,100947.75
2022-09-15T09:00:49.249Z,100948.72
2022-09-15T09:03:34.002Z,100943.38
2022-09-15T09:06:12.020Z,100918.19
2022-09-15T09:08:55.157Z,100935.91
2022-09-15T09:11:37.718Z,100945.59
2022-09-15T09:14:14.235Z,100931.34
2022-09-15T09:17:11.770Z,100953.31
2022-09-15T09:20:00.036Z,100952.50
2022-09-15T09:22:32.414Z,100959.16
2022-09-15T09:25:00.227Z,100930.34
2022-09-15T09:27:31.647Z,100958.97
2022-09-15T09:30:04.840Z,100962.56
2022-09-15T09:32:40.305Z,100945.84
2022-09-15T09:35:32.217Z,100977.50
2022-09-15T09:38:00.103Z,100968.81
2022-09-15T09:40:27.774Z,100931.53
2022-09-15T09:42:54.187Z,100968.56
2022-09-15T09:45:20.582Z,100966.53
2022-09-15T09:47:46.932Z,100945.31
2022-09-15T09:50:35.397Z,100959.25
2022-09-15T09:53:27.521Z,100954.19
2022-09-15T09:55:55.185Z,100921.69
2022-09-15T09:58:25.675Z,100942.53
2022-09-15T10:00:52.476Z,100947.16
2022-09-15T10:03:24.571Z,100938.94
2022-09-15T10:06:05.709Z,100968.97
2022-09-15T10:08:32.167Z,100961.31
2022-09-15T10:11:04.264Z,100925.03
2022-09-15T10:13:30.836Z,100953.63
2022-09-15T10:16:00.120Z,100945.94
2022-09-15T10:18:34.968Z,100941.09
2022-09-15T10:21:03.846Z,100936.44
2022-09-15T10:23:31.748Z,100908.94
2022-09-15T10:26:19.132Z,100945.41
2022-09-15T10:29:10.103Z,100924.44
2022-09-15T10:31:36.498Z,100913.25
2022-09-15T10:34:25.230Z,100935.81
2022-09-15T10:36:54.725Z,100914.97
2022-09-15T10:39:27.475Z,100933.72
2022-09-15T10:42:21.457Z,100929.22
2022-09-15T10:44:53.827Z,100927.00
2022-09-15T10:47:39.717Z,100940.16
2022-09-15T10:50:24.880Z,100934.06
2022-09-15T10:53:00.096Z,100928.06
2022-09-15T10:55:52.919Z,100912.66
2022-09-15T10:59:07.914Z,100932.00
2022-09-15T11:01:49.930Z,100929.22
2022-09-15T11:04:25.220Z,100923.94
2022-09-15T11:07:06.564Z,100924.91
2022-09-15T11:09:48.819Z,100930.69
2022-09-15T11:12:29.229Z,100932.16
2022-09-15T11:15:05.246Z,100932.16
2022-09-15T11:17:37.534Z,100944.75
2022-09-15T11:20:22.726Z,100916.53
2022-09-15T11:22:56.508Z,100907.22
2022-09-15T11:25:32.112Z,100911.84
2022-09-15T11:28:09.911Z,100926.63
2022-09-15T11:30:44.501Z,100921.22
2022-09-15T11:33:39.540Z,100924.72
2022-09-15T11:36:13.281Z,100923.06
2022-09-15T11:38:47.797Z,100887.41
2022-09-15T11:41:17.617Z,100923.81
2022-09-15T11:43:57.126Z,100927.34
2022-09-15T11:46:31.913Z,100908.63
2022-09-15T11:49:07.768Z,100909.81
2022-09-15T11:51:39.613Z,100897.75
2022-09-15T11:54:17.200Z,100916.88
2022-09-15T11:56:47.353Z,100893.22
2022-09-15T11:59:39.047Z,100911.19
2022-09-15T12:02:24.246Z,100917.72
2022-09-15T12:05:11.365Z,100913.97
2022-09-15T12:07:45.083Z,100911.41
2022-09-15T12:10:19.115Z,100889.00
2022-09-15T12:12:46.620Z,100914.78
2022-09-15T12:15:18.204Z,100916.34
2022-09-15T12:17:50.722Z,100922.66
2022-09-15T12:20:31.441Z,100923.72
2022-09-15T12:23:02.580Z,100925.81
2022-09-15T12:25:47.779Z,100925.00
2022-09-15T12:28:23.301Z,100938.22
2022-09-15T12:31:25.361Z,100929.81
2022-09-15T12:33:55.696Z,100945.25
2022-09-15T12:36:37.221Z,100953.44
2022-09-15T12:39:17.124Z,100910.22
2022-09-15T12:41:48.369Z,100965.75
2022-09-15T12:44:25.023Z,100944.16
2022-09-15T12:46:54.053Z,100976.44
2022-09-15T12:49:23.351Z,100972.25
2022-09-15T12:51:50.241Z,100971.22
2022-09-15T12:54:23.730Z,100946.28
2022-09-15T12:56:54.369Z,100942.63
2022-09-15T12:59:25.249Z,100971.72
2022-09-15T13:01:52.985Z,100964.84
2022-09-15T13:04:27.577Z,100970.25
2022-09-15T13:07:21.512Z,100969.25
2022-09-15T13:10:27.749Z,100967.09
2022-09-15T13:13:18.659Z,100925.13
2022-09-15T13:15:47.018Z,100928.34
2022-09-15T13:18:14.640Z,100935.53
2022-09-15T13:20:49.079Z,100946.88
2022-09-15T13:23:15.701Z,100946.31
2022-09-15T13:25:44.584Z,100952.84
2022-09-15T13:28:11.878Z,100954.75
2022-09-15T13:30:57.079Z,100953.97
2022-09-15T13:40:06.284Z,100965.44
2022-09-15T13:42:44.203Z,100946.41
2022-09-15T13:45:32.230Z,100951.78
2022-09-15T13:48:12.724Z,100956.84
2022-09-15T13:50:59.808Z,100935.59
2022-09-15T13:53:26.060Z,100960.63
2022-09-15T13:55:55.457Z,100977.47
2022-09-15T14:01:12.464Z,100972.56
2022-09-15T14:03:38.914Z,100981.34
2022-09-15T14:06:17.917Z,100974.09
2022-09-15T14:08:46.420Z,100978.81
2022-09-15T14:11:17.155Z,100980.31
2022-09-15T14:13:47.037Z,100965.47
2022-09-15T14:16:25.595Z,100968.28
2022-09-15T14:18:54.250Z,100953.44
2022-09-15T14:21:29.715Z,100961.72
2022-09-15T14:24:05.900Z,100967.28
2022-09-15T14:26:35.280Z,100970.16
2022-09-15T14:29:04.110Z,100966.19
2022-09-15T14:31:37.886Z,100991.91
2022-09-15T14:34:07.630Z,100963.28
2022-09-15T14:36:34.438Z,100959.03
2022-09-15T14:39:16.678Z,100961.66
2022-09-15T14:41:43.307Z,100968.91
2022-09-15T14:47:26.299Z,100962.25
2022-09-15T14:50:16.512Z,100966.59
2022-09-15T14:52:53.396Z,100964.88
2022-09-15T14:55:47.866Z,100962.38
2022-09-15T14:58:22.690Z,100961.03
2022-09-15T15:01:09.427Z,100960.56
2022-09-15T15:03:56.648Z,100968.34
2022-09-15T15:06:29.958Z,100969.69
2022-09-15T15:09:12.393Z,100971.41
2022-09-15T15:11:40.105Z,100971.59
2022-09-15T15:14:07.846Z,100966.44
2022-09-15T15:16:34.898Z,100961.50
2022-09-15T15:19:01.538Z,100962.88
2022-09-15T15:21:41.247Z,100973.69
2022-09-15T15:24:17.698Z,100979.63
2022-09-15T15:26:48.907Z,100973.94
2022-09-15T15:29:42.588Z,100997.53
2022-09-15T15:32:21.764Z,100988.44
2022-09-15T15:34:53.276Z,100995.78
2022-09-15T15:37:29.744Z,101006.31
2022-09-15T15:39:57.514Z,100989.78
2022-09-15T15:42:24.391Z,100998.59
2022-09-15T15:45:09.441Z,101000.22
2022-09-15T15:47:36.748Z,101008.06
2022-09-15T15:50:14.568Z,100990.97
2022-09-15T15:52:41.613Z,101013.50
2022-09-15T15:55:09.393Z,101013.53
2022-09-15T15:57:38.200Z,101022.41
2022-09-15T16:00:16.611Z,101012.53
2022-09-15T16:02:46.782Z,101010.56
2022-09-15T16:05:13.721Z,101017.81
2022-09-15T16:07:40.608Z,101003.69
2022-09-15T16:10:08.447Z,101015.16
2022-09-15T16:12:35.544Z,101006.94
2022-09-15T16:15:02.767Z,101019.81
2022-09-15T16:17:29.118Z,101026.06
2022-09-15T16:19:55.865Z,101019.22
2022-09-15T16:22:22.329Z,101009.38
2022-09-15T16:24:48.750Z,101023.66
2022-09-15T16:27:17.245Z,101004.91
2022-09-15T16:29:44.887Z,101025.69
2022-09-15T16:32:18.652Z,101034.94
2022-09-15T16:34:45.164Z,101037.56
2022-09-15T16:37:11.564Z,101018.81
2022-09-15T16:39:37.914Z,101033.03
2022-09-15T16:42:04.631Z,101018.94
2022-09-15T16:44:31.130Z,101029.19
2022-09-15T16:46:57.552Z,101028.59
2022-09-15T16:49:23.994Z,101007.59
2022-09-15T16:51:50.336Z,101021.06
2022-09-15T16:54:18.916Z,101028.88
2022-09-15T16:56:46.049Z,101007.34
2022-09-15T16:59:12.571Z,101030.75
2022-09-15T17:01:39.604Z,101021.28
2022-09-15T17:04:12.906Z,101010.75
2022-09-15T17:06:39.284Z,101018.88
2022-09-15T17:09:05.647Z,101010.34
2022-09-15T17:11:32.002Z,101023.56
2022-09-15T17:13:58.347Z,101023.56
2022-09-15T17:16:40.493Z,101016.47
2022-09-15T17:19:07.117Z,101018.31
2022-09-15T17:21:33.515Z,101009.28
2022-09-15T17:23:59.863Z,101011.66
2022-09-15T17:26:30.530Z,101016.28
2022-09-15T17:28:58.261Z,101015.69
2022-09-15T17:31:25.055Z,100999.53
2022-09-15T17:33:52.058Z,101024.09
2022-09-15T17:36:18.514Z,101018.41
2022-09-15T17:38:45.938Z,101026.63
2022-09-15T17:41:20.358Z,101032.25
2022-09-15T17:43:46.970Z,101015.94
2022-09-15T17:46:13.511Z,101014.88
2022-09-15T17:48:40.038Z,101010.19
2022-09-15T17:51:07.684Z,101034.44
2022-09-15T17:53:34.125Z,101031.41
2022-09-15T17:56:00.524Z,101041.28
2022-09-15T17:58:26.948Z,101036.47
2022-09-15T18:00:53.972Z,101040.91
2022-09-15T18:03:38.780Z,101036.66
2022-09-15T18:06:07.504Z,101052.75
2022-09-15T18:08:34.145Z,101050.28
2022-09-15T18:11:00.743Z,101065.41
2022-09-15T18:13:29.890Z,101066.44
2022-09-15T18:15:57.130Z,101069.53
2022-09-15T18:18:26.182Z,101073.97
2022-09-15T18:20:53.958Z,101070.69
2022-09-15T18:23:22.814Z,101075.84
2022-09-15T18:25:49.627Z,101086.16
2022-09-15T18:28:17.089Z,101084.97
2022-09-15T18:30:45.483Z,101099.75
2022-09-15T18:33:21.203Z,101096.84
2022-09-15T18:35:48.895Z,101077.16
2022-09-15T18:38:15.665Z,101085.16
2022-09-15T18:40:46.824Z,101082.28
2022-09-15T18:43:13.217Z,101087.88
2022-09-15T18:45:40.992Z,101076.06
2022-09-15T18:48:11.955Z,101059.97
2022-09-15T18:50:40.871Z,101065.19
2022-09-15T18:53:07.358Z,101070.06
2022-09-15T18:55:33.695Z,101070.50
2022-09-15T18:58:01.182Z,101057.13
2022-09-15T19:00:28.577Z,101084.91
2022-09-15T19:03:00.134Z,101071.59
2022-09-15T19:05:27.760Z,101068.69
2022-09-15T19:07:54.093Z,101081.22
2022-09-15T19:10:20.611Z,101076.63
2022-09-15T19:12:47.131Z,101071.25
2022-09-15T19:15:13.916Z,101087.69
2022-09-15T19:17:41.134Z,101084.28
2022-09-15T19:20:08.975Z,101073.28
2022-09-15T19:22:36.079Z,101076.41
2022-09-15T19:25:03.586Z,101070.50
2022-09-15T19:27:30.163Z,101078.25
2022-09-15T19:29:56.508Z,101090.28
2022-09-15T19:32:23.139Z,101096.31
2022-09-15T19:34:49.571Z,101091.28
2022-09-15T19:37:19.057Z,101093.09
2022-09-15T19:39:46.047Z,101087.69
2022-09-15T19:42:12.723Z,101110.25
2022-09-15T19:44:40.983Z,101106.72
2022-09-15T19:47:07.587Z,101120.56
2022-09-15T19:49:33.960Z,101126.94
2022-09-15T19:52:00.502Z,101111.91
2022-09-15T19:54:29.727Z,101100.72
2022-09-15T19:56:56.540Z,101095.16
2022-09-15T19:59:27.444Z,101103.50
2022-09-15T20:01:56.817Z,101111.81
2022-09-15T20:04:23.213Z,101101.78
2022-09-15T20:06:49.582Z,101088.53
2022-09-15T20:09:16.146Z,101098.50
2022-09-15T20:11:42.516Z,101105.69
2022-09-15T20:14:09.225Z,101102.56
2022-09-15T20:16:35.691Z,101110.22
2022-09-15T20:19:04.170Z,101108.75
2022-09-15T20:21:49.749Z,101112.28
2022-09-15T20:24:18.251Z,101097.88
2022-09-15T20:26:44.762Z,101109.34
2022-09-15T20:29:11.333Z,101101.34
2022-09-15T20:31:37.710Z,101096.31
2022-09-15T20:34:04.116Z,101107.38
2022-09-15T20:36:35.366Z,101114.66
2022-09-15T20:39:03.236Z,101104.38
2022-09-15T20:41:32.138Z,101107.44
2022-09-15T20:43:58.860Z,101096.72
2022-09-15T20:46:25.423Z,101068.81
2022-09-15T20:48:52.142Z,101101.81
2022-09-15T20:51:23.588Z,101082.88
2022-09-15T20:53:52.233Z,101110.31
2022-09-15T20:56:21.157Z,101119.13
2022-09-15T20:58:47.537Z,101070.00
2022-09-15T21:01:16.257Z,101095.00
2022-09-15T21:03:44.209Z,101117.91
2022-09-15T21:06:18.958Z,101100.88
2022-09-15T21:08:47.349Z,101111.13
2022-09-15T21:11:15.762Z,101122.22
2022-09-15T21:13:43.338Z,101096.09
2022-09-15T21:16:12.549Z,101120.13
2022-09-15T21:18:39.996Z,101088.66
2022-09-15T21:21:12.808Z,101125.88
2022-09-15T21:23:50.535Z,101101.59
2022-09-15T21:26:27.876Z,101121.84
2022-09-15T21:28:55.566Z,101119.59
2022-09-15T21:31:24.595Z,101045.97
2022-09-15T21:33:52.068Z,101115.56
2022-09-15T21:36:23.813Z,101115.88
2022-09-15T21:38:52.393Z,101114.25
2022-09-15T21:41:21.365Z,101096.72
2022-09-15T21:43:48.543Z,101096.72
2022-09-15T21:46:19.811Z,101085.19
2022-09-15T21:48:47.239Z,101079.16
2022-09-15T21:51:15.457Z,101100.28
2022-09-15T21:53:42.886Z,101112.34
2022-09-15T21:56:11.861Z,101124.44
2022-09-15T21:58:43.036Z,101116.34
2022-09-15T22:01:18.870Z,101116.69
2022-09-15T22:03:51.374Z,101119.28
2022-09-15T22:06:19.452Z,101109.56
2022-09-15T22:08:46.638Z,101018.25
2022-09-15T22:11:13.191Z,101057.03
2022-09-15T22:13:40.807Z,101085.41
2022-09-15T22:16:16.679Z,101119.81
2022-09-15T22:18:43.528Z,101110.38
2022-09-15T22:21:21.098Z,101063.88
2022-09-15T22:23:48.446Z,101103.88
2022-09-15T22:26:20.846Z,101099.19
2022-09-15T22:28:47.379Z,101055.03
2022-09-15T22:31:16.055Z,101094.66
2022-09-15T22:33:42.831Z,101087.13
2022-09-15T22:36:13.957Z,101035.88
2022-09-15T22:38:40.390Z,101065.09
2022-09-15T22:41:09.131Z,101091.84
2022-09-15T22:43:36.142Z,101029.44
2022-09-15T22:46:02.647Z,101072.56
2022-09-15T22:48:29.186Z,101097.41
2022-09-15T22:50:55.585Z,101043.72
2022-09-15T22:53:23.358Z,101088.19
2022-09-15T22:56:04.854Z,101087.19
2022-09-15T22:58:32.782Z,101103.56
2022-09-15T23:01:12.224Z,101076.22
2022-09-15T23:03:38.949Z,101097.63
2022-09-15T23:06:06.019Z,101038.53
2022-09-15T23:08:32.939Z,101107.22
2022-09-15T23:11:10.868Z,101121.66
2022-09-15T23:13:37.649Z,101083.50
2022-09-15T23:16:05.632Z,101108.59
2022-09-15T23:18:32.480Z,101069.34
2022-09-15T23:21:07.154Z,101094.81
2022-09-15T23:23:38.548Z,101067.53
2022-09-15T23:26:10.158Z,101076.28
2022-09-15T23:28:37.182Z,101043.31
2022-09-15T23:31:03.573Z,101106.59
2022-09-15T23:33:34.521Z,101114.22
2022-09-15T23:36:06.928Z,101105.94
2022-09-15T23:38:37.336Z,101099.78
2022-09-15T23:41:03.878Z,101083.88
2022-09-15T23:43:30.625Z,101072.25
2022-09-15T23:45:56.977Z,101067.00
2022-09-15T23:48:23.565Z,101061.31
2022-09-15T23:50:50.118Z,101106.03
2022-09-15T23:53:16.494Z,101076.66
2022-09-15T23:55:42.869Z,101071.91
2022-09-15T23:58:10.284Z,101096.19
